createdAt,value
2023-03-04T00:00:04.484Z,95.29
2023-03-04T00:02:37.184Z,95.14
2023-03-04T00:05:04.480Z,95.17
2023-03-04T00:07:31.598Z,95.03
2023-03-04T00:09:58.780Z,94.91
2023-03-04T00:12:25.850Z,94.68
2023-03-04T00:14:52.945Z,94.45
2023-03-04T00:17:20.015Z,94.44
2023-03-04T00:19:47.344Z,94.28
2023-03-04T00:22:14.546Z,94.09
2023-03-04T00:24:41.761Z,94.24
2023-03-04T00:27:08.873Z,94.09
2023-03-04T00:29:36.004Z,93.53
2023-03-04T00:32:03.126Z,93.48
2023-03-04T00:34:32.433Z,93.58
2023-03-04T00:37:01.702Z,93.54
2023-03-04T00:39:28.875Z,93.42
2023-03-04T00:41:56.281Z,93.13
2023-03-04T00:44:23.327Z,93.20
2023-03-04T00:46:50.713Z,93.07
2023-03-04T00:49:18.155Z,92.85
2023-03-04T00:51:45.316Z,92.79
2023-03-04T00:54:12.526Z,92.94
2023-03-04T00:56:39.628Z,92.72
2023-03-04T00:59:06.626Z,93.16
2023-03-04T01:01:33.777Z,93.03
2023-03-04T01:04:00.866Z,93.07
2023-03-04T01:06:28.046Z,92.95
2023-03-04T01:08:55.105Z,93.12
2023-03-04T01:11:22.562Z,93.47
2023-03-04T01:13:49.638Z,93.50
2023-03-04T01:16:16.780Z,93.69
2023-03-04T01:18:43.970Z,93.70
2023-03-04T01:21:11.022Z,93.83
2023-03-04T01:23:38.105Z,94.11
2023-03-04T01:26:05.330Z,93.82
2023-03-04T01:28:36.053Z,94.21
2023-03-04T01:31:04.532Z,94.01
2023-03-04T01:33:31.816Z,94.25
2023-03-04T01:35:58.882Z,94.19
2023-03-04T01:38:26.761Z,94.30
2023-03-04T01:40:54.428Z,94.25
2023-03-04T01:43:24.820Z,94.20
2023-03-04T01:45:53.529Z,94.34
2023-03-04T01:48:26.995Z,94.47
2023-03-04T01:50:54.118Z,94.20
2023-03-04T01:53:26.509Z,94.43
2023-03-04T01:55:58.280Z,94.19
2023-03-04T01:58:32.915Z,94.05
2023-03-04T02:00:59.958Z,94.07
2023-03-04T02:03:27.622Z,93.75
2023-03-04T02:05:55.769Z,93.89
2023-03-04T02:08:24.903Z,94.00
2023-03-04T02:10:52.525Z,94.11
2023-03-04T02:13:19.900Z,93.89
2023-03-04T02:15:47.659Z,94.22
2023-03-04T02:18:18.591Z,93.92
2023-03-04T02:20:54.678Z,94.11
2023-03-04T02:23:29.722Z,94.06
2023-03-04T02:26:15.064Z,93.66
2023-03-04T02:28:43.592Z,93.67
2023-03-04T02:31:41.476Z,93.46
2023-03-04T02:34:23.062Z,93.66
2023-03-04T02:36:52.604Z,93.44
2023-03-04T02:39:28.744Z,93.38
2023-03-04T02:41:56.830Z,93.53
2023-03-04T02:44:36.582Z,93.38
2023-03-04T02:47:05.862Z,93.57
2023-03-04T02:49:34.643Z,93.68
2023-03-04T02:52:08.071Z,93.58
2023-03-04T02:54:37.430Z,93.48
2023-03-04T02:57:08.417Z,93.38
2023-03-04T02:59:38.698Z,93.09
2023-03-04T03:02:07.309Z,93.38
2023-03-04T03:04:37.163Z,93.53
2023-03-04T03:07:08.097Z,93.50
2023-03-04T03:09:35.862Z,93.43
2023-03-04T03:12:02.981Z,93.56
2023-03-04T03:14:32.097Z,93.43
2023-03-04T03:16:59.405Z,93.10
2023-03-04T03:19:26.489Z,93.46
2023-03-04T03:21:55.071Z,93.17
2023-03-04T03:24:22.098Z,93.70
2023-03-04T03:26:49.184Z,93.25
2023-03-04T03:29:16.345Z,93.26
2023-03-04T03:31:43.539Z,93.41
2023-03-04T03:34:10.545Z,93.54
2023-03-04T03:36:37.666Z,93.45
2023-03-04T03:39:04.795Z,93.06
2023-03-04T03:41:31.801Z,93.37
2023-03-04T03:43:58.815Z,93.37
2023-03-04T03:46:25.858Z,93.32
2023-03-04T03:48:53.104Z,92.94
2023-03-04T03:51:20.074Z,93.43
2023-03-04T03:53:47.250Z,93.19
2023-03-04T03:56:14.281Z,93.29
2023-03-04T03:58:41.427Z,93.42
2023-03-04T04:01:09.448Z,93.33
2023-03-04T04:03:36.758Z,92.93
2023-03-04T04:06:03.885Z,93.25
2023-03-04T04:08:30.946Z,92.78
2023-03-04T04:10:57.971Z,92.93
2023-03-04T04:13:25.320Z,92.79
2023-03-04T04:15:53.524Z,93.33
2023-03-04T04:18:20.778Z,92.94
2023-03-04T04:20:47.830Z,93.26
2023-03-04T04:23:14.947Z,93.14
2023-03-04T04:25:42.018Z,93.15
2023-03-04T04:28:09.217Z,93.38
2023-03-04T04:30:36.677Z,93.03
2023-03-04T04:33:05.068Z,93.20
2023-03-04T04:35:39.024Z,92.78
2023-03-04T04:38:07.458Z,92.87
2023-03-04T04:40:34.536Z,92.87
2023-03-04T04:43:01.909Z,93.04
2023-03-04T04:45:29.310Z,93.11
2023-03-04T04:47:57.598Z,92.61
2023-03-04T04:50:25.301Z,92.92
2023-03-04T04:52:52.954Z,93.05
2023-03-04T04:55:20.072Z,92.86
2023-03-04T04:57:47.659Z,92.87
2023-03-04T05:00:15.146Z,92.83
2023-03-04T05:02:42.224Z,92.54
2023-03-04T05:05:09.559Z,92.75
2023-03-04T05:07:37.116Z,92.78
2023-03-04T05:10:04.626Z,92.76
2023-03-04T05:12:31.648Z,93.50
2023-03-04T05:14:58.767Z,93.05
2023-03-04T05:17:25.896Z,93.26
2023-03-04T05:19:52.940Z,93.15
2023-03-04T05:22:20.070Z,93.25
2023-03-04T05:24:47.066Z,92.95
2023-03-04T05:27:14.167Z,93.10
2023-03-04T05:29:42.899Z,93.39
2023-03-04T05:32:10.084Z,93.42
2023-03-04T05:34:37.182Z,93.30
2023-03-04T05:37:04.184Z,93.54
2023-03-04T05:39:31.247Z,93.54
2023-03-04T05:41:58.339Z,93.32
2023-03-04T05:44:25.422Z,93.57
2023-03-04T05:46:52.586Z,93.38
2023-03-04T05:49:20.366Z,93.39
2023-03-04T05:51:47.535Z,93.64
2023-03-04T05:54:14.689Z,93.73
2023-03-04T05:56:42.000Z,93.66
2023-03-04T05:59:09.046Z,93.79
2023-03-04T06:01:36.132Z,93.90
2023-03-04T06:04:03.403Z,94.03
2023-03-04T06:06:30.425Z,93.97
2023-03-04T06:08:57.511Z,94.08
2023-03-04T06:11:24.609Z,94.24
2023-03-04T06:13:51.648Z,94.47
2023-03-04T06:16:18.798Z,94.58
2023-03-04T06:18:45.890Z,94.58
2023-03-04T06:21:13.109Z,94.53
2023-03-04T06:23:40.672Z,94.76
2023-03-04T06:26:10.298Z,94.64
2023-03-04T06:28:37.357Z,95.05
2023-03-04T06:31:04.622Z,94.78
2023-03-04T06:33:31.700Z,95.16
2023-03-04T06:35:58.838Z,95.51
2023-03-04T06:38:26.969Z,95.08
2023-03-04T06:40:57.217Z,95.47
2023-03-04T06:43:24.743Z,95.38
2023-03-04T06:45:51.944Z,95.20
2023-03-04T06:48:19.112Z,95.31
2023-03-04T06:50:46.225Z,95.32
2023-03-04T06:53:13.401Z,95.27
2023-03-04T06:55:40.516Z,95.21
2023-03-04T06:58:07.569Z,95.48
2023-03-04T07:00:34.834Z,95.52
2023-03-04T07:03:02.331Z,95.78
2023-03-04T07:05:29.465Z,95.69
2023-03-04T07:07:56.831Z,95.24
2023-03-04T07:10:23.968Z,95.42
2023-03-04T07:12:51.055Z,95.78
2023-03-04T07:15:18.240Z,95.58
2023-03-04T07:17:45.330Z,95.59
2023-03-04T07:20:12.661Z,95.48
2023-03-04T07:22:39.747Z,95.76
2023-03-04T07:25:07.505Z,95.54
2023-03-04T07:27:34.797Z,95.75
2023-03-04T07:30:02.736Z,95.37
2023-03-04T07:32:30.039Z,95.92
2023-03-04T07:34:57.286Z,95.69
2023-03-04T07:37:24.348Z,95.49
2023-03-04T07:39:51.419Z,95.20
2023-03-04T07:42:18.443Z,95.22
2023-03-04T07:44:53.489Z,95.09
2023-03-04T07:47:20.686Z,95.30
2023-03-04T07:49:47.651Z,95.45
2023-03-04T07:52:14.817Z,95.33
2023-03-04T07:54:41.991Z,95.60
2023-03-04T07:57:09.024Z,95.45
2023-03-04T07:59:36.288Z,95.61
2023-03-04T08:02:03.553Z,95.15
2023-03-04T08:04:30.715Z,95.22
2023-03-04T08:06:57.848Z,95.05
2023-03-04T08:09:25.307Z,95.46
2023-03-04T08:11:52.452Z,94.85
2023-03-04T08:14:19.955Z,94.89
2023-03-04T08:16:47.069Z,94.82
2023-03-04T08:19:14.169Z,94.88
2023-03-04T08:21:41.403Z,94.81
2023-03-04T08:24:09.057Z,95.15
2023-03-04T08:26:42.217Z,94.52
2023-03-04T08:29:12.583Z,95.01
2023-03-04T08:31:39.909Z,94.84
2023-03-04T08:34:08.789Z,94.42
2023-03-04T08:36:36.262Z,94.75
2023-03-04T08:39:05.098Z,95.24
2023-03-04T08:41:32.288Z,94.77
2023-03-04T08:44:00.518Z,94.79
2023-03-04T08:46:27.980Z,94.84
2023-03-04T08:48:55.126Z,94.90
2023-03-04T08:51:22.587Z,94.70
2023-03-04T08:53:49.592Z,94.56
2023-03-04T08:56:17.225Z,94.94
2023-03-04T08:58:44.277Z,94.88
2023-03-04T09:01:13.015Z,95.01
2023-03-04T09:03:41.056Z,94.79
2023-03-04T09:06:09.045Z,95.06
2023-03-04T09:08:36.622Z,95.45
2023-03-04T09:11:04.173Z,95.11
2023-03-04T09:13:32.278Z,95.37
2023-03-04T09:16:00.091Z,95.46
2023-03-04T09:18:28.498Z,95.34
2023-03-04T09:20:55.869Z,96.02
2023-03-04T09:23:23.714Z,95.47
2023-03-04T09:25:51.022Z,95.96
2023-03-04T09:28:19.508Z,96.03
2023-03-04T09:30:47.084Z,95.95
2023-03-04T09:33:14.338Z,96.08
2023-03-04T09:35:42.011Z,96.04
2023-03-04T09:38:09.223Z,96.55
2023-03-04T09:40:46.908Z,96.80
2023-03-04T09:43:30.190Z,97.57
2023-03-04T09:46:04.928Z,97.15
2023-03-04T09:48:40.921Z,98.25
2023-03-04T09:51:42.025Z,98.88
2023-03-04T09:54:20.888Z,99.03
2023-03-04T09:56:51.738Z,98.72
2023-03-04T09:59:43.618Z,100.00
2023-03-04T10:02:29.346Z,100.00
2023-03-04T10:05:01.942Z,100.00
2023-03-04T10:07:36.729Z,100.00
2023-03-04T10:10:16.215Z,100.00
2023-03-04T10:12:48.567Z,100.00
2023-03-04T10:15:40.079Z,100.00
2023-03-04T10:18:22.218Z,100.00
2023-03-04T10:21:01.731Z,100.00
2023-03-04T10:23:31.964Z,100.00
2023-03-04T10:25:59.882Z,100.00
2023-03-04T10:28:29.534Z,100.00
2023-03-04T10:31:23.236Z,100.00
2023-03-04T10:33:50.443Z,100.00
2023-03-04T10:36:20.085Z,100.00
2023-03-04T10:38:47.365Z,100.00
2023-03-04T10:41:21.383Z,100.00
2023-03-04T10:44:10.215Z,100.00
2023-03-04T10:46:46.211Z,100.00
2023-03-04T10:49:15.634Z,100.00
2023-03-04T10:51:44.323Z,100.00
2023-03-04T10:54:24.319Z,100.00
2023-03-04T10:57:06.877Z,100.00
2023-03-04T10:59:47.978Z,100.00
2023-03-04T11:02:20.559Z,100.00
2023-03-04T11:04:55.666Z,100.00
2023-03-04T11:07:24.900Z,99.45
2023-03-04T11:09:52.338Z,98.68
2023-03-04T11:12:33.588Z,98.70
2023-03-04T11:15:01.724Z,98.67
2023-03-04T11:17:42.288Z,98.94
2023-03-04T11:20:21.098Z,99.43
2023-03-04T11:22:48.498Z,99.48
2023-03-04T11:25:29.045Z,99.37
2023-03-04T11:28:03.463Z,99.31
2023-03-04T11:30:37.212Z,99.72
2023-03-04T11:33:28.671Z,99.56
2023-03-04T11:36:04.854Z,99.97
2023-03-04T11:38:49.907Z,99.48
2023-03-04T11:41:23.814Z,99.04
2023-03-04T11:43:50.983Z,99.28
2023-03-04T11:46:31.825Z,98.62
2023-03-04T11:49:11.792Z,98.58
2023-03-04T11:52:04.937Z,98.77
2023-03-04T11:54:35.083Z,98.24
2023-03-04T11:57:13.525Z,98.60
2023-03-04T12:00:18.282Z,98.47
2023-03-04T12:03:04.996Z,98.13
2023-03-04T12:05:43.918Z,98.80
2023-03-04T12:08:29.469Z,99.14
2023-03-04T12:11:04.378Z,99.00
2023-03-04T12:14:02.388Z,98.90
2023-03-04T12:16:50.876Z,99.25
2023-03-04T12:19:26.685Z,99.41
2023-03-04T12:22:09.310Z,98.53
2023-03-04T12:24:55.004Z,99.16
2023-03-04T12:27:28.190Z,98.98
2023-03-04T12:30:05.747Z,98.59
2023-03-04T12:32:44.017Z,98.59
2023-03-04T12:35:17.135Z,98.58
2023-03-04T12:37:54.064Z,97.88
2023-03-04T12:40:27.559Z,97.97
2023-03-04T12:43:08.776Z,96.60
2023-03-04T12:45:48.977Z,94.64
2023-03-04T12:48:33.590Z,91.75
2023-03-04T12:51:36.632Z,90.00
2023-03-04T12:54:26.292Z,87.95
2023-03-04T12:57:34.649Z,83.69
2023-03-04T13:00:30.083Z,81.52
2023-03-04T13:03:04.119Z,81.30
2023-03-04T13:05:54.391Z,79.58
2023-03-04T13:09:11.921Z,80.24
2023-03-04T13:11:54.732Z,76.10
2023-03-04T13:14:21.885Z,77.02
2023-03-04T13:16:54.598Z,76.98
2023-03-04T13:19:56.370Z,71.12
2023-03-04T13:22:43.802Z,73.70
2023-03-04T13:25:31.402Z,69.81
2023-03-04T13:28:03.934Z,68.45
2023-03-04T13:30:38.139Z,68.59
2023-03-04T13:33:10.977Z,65.56
2023-03-04T13:35:50.138Z,62.57
2023-03-04T13:38:33.713Z,62.14
2023-03-04T13:41:01.007Z,62.31
2023-03-04T13:43:36.886Z,62.31
2023-03-04T13:46:19.282Z,61.08
2023-03-04T13:48:52.772Z,63.15
2023-03-04T13:51:45.156Z,62.67
2023-03-04T13:54:33.504Z,60.94
2023-03-04T13:57:00.524Z,61.41
2023-03-04T13:59:32.973Z,59.76
2023-03-04T14:02:22.794Z,58.28
2023-03-04T14:05:01.144Z,57.38
2023-03-04T14:07:32.467Z,58.14
2023-03-04T14:10:07.733Z,56.65
2023-03-04T14:12:41.843Z,56.58
2023-03-04T14:15:14.813Z,55.83
2023-03-04T14:17:47.541Z,55.74
2023-03-04T14:20:29.927Z,55.15
2023-03-04T14:22:58.661Z,56.10
2023-03-04T14:25:27.124Z,55.80
2023-03-04T14:28:23.467Z,55.73
2023-03-04T14:30:55.865Z,56.41
2023-03-04T14:33:29.866Z,56.48
2023-03-04T14:36:00.379Z,55.63
2023-03-04T14:38:38.339Z,56.14
2023-03-04T14:41:28.961Z,55.62
2023-03-04T14:44:17.089Z,55.12
2023-03-04T14:47:04.635Z,55.25
2023-03-04T14:49:39.882Z,56.36
2023-03-04T14:52:07.931Z,56.64
2023-03-04T14:54:43.754Z,55.65
2023-03-04T14:57:32.567Z,56.25
2023-03-04T15:00:15.629Z,55.55
2023-03-04T15:02:43.193Z,55.63
2023-03-04T15:05:17.888Z,54.64
2023-03-04T15:07:52.032Z,55.17
2023-03-04T15:10:24.708Z,54.75
2023-03-04T15:12:54.993Z,55.08
2023-03-04T15:15:36.301Z,55.44
2023-03-04T15:18:15.956Z,55.37
2023-03-04T15:20:43.191Z,55.12
2023-03-04T15:23:14.844Z,53.29
2023-03-04T15:25:42.037Z,52.87
2023-03-04T15:28:17.666Z,52.16
2023-03-04T15:30:44.785Z,51.85
2023-03-04T15:33:13.076Z,51.57
2023-03-04T15:35:42.113Z,52.10
2023-03-04T15:38:13.005Z,51.58
2023-03-04T15:40:43.536Z,52.78
2023-03-04T15:43:21.741Z,52.77
2023-03-04T15:45:50.197Z,52.80
2023-03-04T15:48:18.716Z,52.30
2023-03-04T15:50:55.541Z,51.72
2023-03-04T15:53:26.314Z,52.06
2023-03-04T15:55:53.672Z,52.42
2023-03-04T15:58:20.956Z,51.83
2023-03-04T16:00:48.233Z,50.85
2023-03-04T16:03:20.504Z,49.14
2023-03-04T16:05:50.539Z,48.82
2023-03-04T16:08:21.612Z,48.69
2023-03-04T16:10:51.706Z,48.66
2023-03-04T16:13:21.256Z,48.38
2023-03-04T16:15:49.017Z,48.96
2023-03-04T16:18:17.391Z,49.47
2023-03-04T16:20:50.045Z,48.82
2023-03-04T16:23:21.231Z,49.23
2023-03-04T16:25:50.896Z,49.26
2023-03-04T16:28:18.260Z,48.88
2023-03-04T16:30:45.597Z,49.13
2023-03-04T16:33:12.843Z,49.23
2023-03-04T16:35:40.138Z,49.33
2023-03-04T16:38:20.695Z,49.66
2023-03-04T16:40:48.206Z,49.71
2023-03-04T16:43:16.507Z,49.76
2023-03-04T16:45:44.559Z,49.91
2023-03-04T16:48:11.692Z,50.25
2023-03-04T16:50:39.295Z,50.61
2023-03-04T16:53:18.987Z,50.42
2023-03-04T16:55:46.107Z,50.02
2023-03-04T16:58:13.275Z,49.95
2023-03-04T17:00:40.344Z,49.80
2023-03-04T17:03:10.214Z,49.96
2023-03-04T17:05:37.904Z,50.54
2023-03-04T17:08:05.098Z,50.91
2023-03-04T17:10:32.456Z,50.56
2023-03-04T17:12:59.575Z,51.12
2023-03-04T17:15:26.815Z,51.31
2023-03-04T17:17:53.962Z,51.13
2023-03-04T17:20:21.270Z,51.67
2023-03-04T17:22:48.350Z,52.01
2023-03-04T17:25:16.276Z,52.47
2023-03-04T17:27:43.375Z,52.57
2023-03-04T17:30:12.782Z,52.37
2023-03-04T17:32:40.777Z,52.23
2023-03-04T17:35:09.223Z,52.77
2023-03-04T17:37:36.980Z,52.51
2023-03-04T17:40:06.377Z,52.35
2023-03-04T17:42:33.457Z,52.10
2023-03-04T17:45:00.645Z,50.62
2023-03-04T17:47:28.075Z,50.16
2023-03-04T17:49:55.264Z,49.26
2023-03-04T17:52:22.303Z,49.42
2023-03-04T17:54:49.459Z,49.82
2023-03-04T17:57:16.680Z,50.04
2023-03-04T17:59:44.011Z,49.65
2023-03-04T18:02:17.522Z,49.55
2023-03-04T18:04:47.125Z,49.84
2023-03-04T18:07:14.378Z,49.71
2023-03-04T18:09:43.269Z,49.14
2023-03-04T18:12:13.806Z,48.97
2023-03-04T18:14:41.149Z,48.73
2023-03-04T18:17:08.365Z,48.50
2023-03-04T18:19:35.400Z,48.44
2023-03-04T18:22:02.592Z,48.73
2023-03-04T18:24:30.010Z,48.41
2023-03-04T18:26:57.482Z,48.38
2023-03-04T18:29:24.633Z,48.36
2023-03-04T18:31:51.794Z,48.11
2023-03-04T18:34:18.955Z,48.12
2023-03-04T18:36:47.785Z,48.30
2023-03-04T18:39:16.843Z,48.35
2023-03-04T18:41:44.566Z,48.10
2023-03-04T18:44:11.847Z,48.75
2023-03-04T18:46:50.627Z,48.62
2023-03-04T18:49:20.391Z,48.75
2023-03-04T18:51:47.504Z,48.64
2023-03-04T18:54:14.662Z,48.75
2023-03-04T18:56:54.135Z,49.07
2023-03-04T18:59:32.736Z,49.38
2023-03-04T19:02:02.527Z,49.46
2023-03-04T19:04:30.680Z,49.14
2023-03-04T19:06:59.180Z,49.53
2023-03-04T19:09:26.875Z,49.44
2023-03-04T19:11:54.023Z,49.86
2023-03-04T19:14:21.528Z,49.67
2023-03-04T19:16:48.820Z,49.84
2023-03-04T19:19:15.909Z,50.13
2023-03-04T19:21:43.091Z,50.25
2023-03-04T19:24:10.305Z,50.29
2023-03-04T19:26:37.506Z,50.11
2023-03-04T19:29:05.838Z,50.07
2023-03-04T19:31:33.390Z,50.31
2023-03-04T19:34:00.511Z,49.55
2023-03-04T19:36:27.740Z,49.59
2023-03-04T19:38:55.740Z,50.07
2023-03-04T19:41:23.234Z,49.58
2023-03-04T19:43:54.392Z,49.66
2023-03-04T19:46:24.740Z,49.54
2023-03-04T19:48:52.038Z,49.78
2023-03-04T19:51:26.999Z,49.58
2023-03-04T19:53:54.756Z,49.57
2023-03-04T19:56:23.085Z,49.87
2023-03-04T19:58:53.182Z,49.99
2023-03-04T20:01:20.298Z,50.19
2023-03-04T20:03:47.557Z,50.33
2023-03-04T20:06:14.703Z,50.66
2023-03-04T20:08:41.790Z,50.68
2023-03-04T20:11:12.897Z,51.03
2023-03-04T20:13:40.086Z,51.45
2023-03-04T20:16:08.809Z,51.24
2023-03-04T20:18:36.036Z,51.85
2023-03-04T20:21:04.144Z,52.03
2023-03-04T20:23:31.346Z,52.37
2023-03-04T20:25:58.502Z,52.34
2023-03-04T20:28:26.493Z,52.68
2023-03-04T20:30:54.580Z,52.51
2023-03-04T20:33:21.713Z,52.39
2023-03-04T20:35:48.880Z,52.69
2023-03-04T20:38:16.077Z,52.28
2023-03-04T20:40:44.490Z,52.75
2023-03-04T20:43:12.112Z,52.69
2023-03-04T20:45:39.295Z,52.83
2023-03-04T20:48:06.604Z,53.00
2023-03-04T20:50:33.694Z,53.28
2023-03-04T20:53:00.950Z,53.62
2023-03-04T20:55:28.305Z,53.33
2023-03-04T20:57:55.446Z,53.94
2023-03-04T21:00:22.977Z,54.10
2023-03-04T21:02:50.057Z,54.58
2023-03-04T21:05:17.121Z,55.12
2023-03-04T21:07:44.312Z,55.21
2023-03-04T21:10:11.578Z,55.87
2023-03-04T21:12:39.113Z,56.32
2023-03-04T21:15:07.099Z,56.91
2023-03-04T21:17:34.069Z,57.09
2023-03-04T21:20:01.272Z,57.75
2023-03-04T21:22:28.334Z,57.91
2023-03-04T21:28:05.880Z,58.41
2023-03-04T21:30:33.194Z,58.42
2023-03-04T21:33:01.936Z,58.82
2023-03-04T21:35:30.378Z,58.80
2023-03-04T21:37:57.546Z,59.19
2023-03-04T21:40:24.612Z,59.48
2023-03-04T21:42:51.736Z,58.98
2023-03-04T21:45:18.961Z,59.55
2023-03-04T21:47:46.084Z,59.25
2023-03-04T21:50:13.170Z,59.37
2023-03-04T21:52:40.353Z,59.04
2023-03-04T21:55:07.786Z,59.72
2023-03-04T21:57:35.116Z,59.88
2023-03-04T22:00:02.472Z,59.66
2023-03-04T22:02:38.788Z,59.42
2023-03-04T22:05:06.068Z,60.33
2023-03-04T22:07:34.840Z,59.60
2023-03-04T22:10:03.331Z,59.75
2023-03-04T22:12:30.317Z,60.02
2023-03-04T22:14:57.435Z,59.52
2023-03-04T22:17:24.682Z,59.91
2023-03-04T22:19:51.894Z,59.65
2023-03-04T22:22:19.174Z,59.58
2023-03-04T22:24:46.697Z,60.24
2023-03-04T22:27:13.753Z,60.16
2023-03-04T22:29:40.864Z,60.40
2023-03-04T22:32:08.023Z,60.53
2023-03-04T22:34:35.149Z,60.07
2023-03-04T22:37:02.293Z,60.31
2023-03-04T22:39:31.066Z,59.97
2023-03-04T22:41:58.122Z,59.65
2023-03-04T22:44:25.161Z,59.77
2023-03-04T22:46:52.367Z,59.60
2023-03-04T22:49:19.523Z,59.22
2023-03-04T22:51:46.946Z,59.72
2023-03-04T22:54:16.203Z,59.57
2023-03-04T22:56:43.556Z,59.98
2023-03-04T22:59:11.391Z,60.09
2023-03-04T23:01:38.674Z,60.46
2023-03-04T23:04:06.122Z,60.16
2023-03-04T23:06:33.296Z,61.05
2023-03-04T23:09:00.685Z,61.09
2023-03-04T23:11:30.630Z,61.34
2023-03-04T23:13:58.172Z,60.99
2023-03-04T23:16:27.966Z,61.16
2023-03-04T23:18:55.355Z,61.87
2023-03-04T23:21:25.291Z,62.21
2023-03-04T23:23:53.269Z,61.86
2023-03-04T23:26:29.308Z,62.11
2023-03-04T23:28:57.306Z,62.31
2023-03-04T23:31:25.825Z,62.97
2023-03-04T23:33:57.448Z,62.72
2023-03-04T23:36:30.369Z,63.37
2023-03-04T23:38:58.631Z,62.76
2023-03-04T23:41:28.195Z,63.17
2023-03-04T23:43:57.611Z,63.66
2023-03-04T23:46:25.719Z,63.76
2023-03-04T23:48:53.865Z,64.37
2023-03-04T23:51:24.663Z,64.09
2023-03-04T23:53:52.126Z,64.68
2023-03-04T23:56:23.426Z,64.60
2023-03-04T23:58:51.017Z,64.07
